Venetia — YQGV — position and weather

sailwx.info

Track history (hours):
 
Tides and Currents Weather Stations Pressure Air Temp Water Temp Dewpoint Dewpoint Depression Visibility Wind Speed Wind Dir Waves Ship Positions

Venetia

Last reported at 2018-Apr-26 09:43 UTC. Time now 2018-Apr-26 11:45 UTC.
Position N 44°10' E 028°39'.

Length 10 m; draft 1 m.

Type: Pilot. MMSI: 264900229.

Date/timePositionNaut miles runAvg speedWind from/ knotsBaromVisibWave heightAir tempDewpointWater temp
2018-Apr-26 09:43N 44°10' E 028°39'0 0.0
2018-Apr-26 09:31N 44°10' E 028°39'4 8.9
2018-Apr-26 09:00N 44°06' E 028°44'4 8.8
2018-Apr-26 08:30N 44°09' E 028°49'0 0.1
2018-Apr-26 08:00N 44°09' E 028°49'0 0.1
2018-Apr-26 07:30N 44°09' E 028°49'0 0.1
2018-Apr-26 07:00N 44°09' E 028°49'0 0.0
2018-Apr-26 06:30N 44°09' E 028°49'3 5.5
2018-Apr-26 06:00N 44°07' E 028°46'5 9.0
2018-Apr-26 05:30N 44°09' E 028°40'  
Track history (hours):
 
Tides and Currents Weather Stations Pressure Air Temp Water Temp Dewpoint Dewpoint Depression Visibility Wind Speed Wind Dir Waves Ship Positions

Venetia

Last reported at 2018-Apr-26 09:43 UTC. Time now 2018-Apr-26 11:45 UTC.
Position N 44°10' E 028°39'.

Length 10 m; draft 1 m.

Type: Pilot. MMSI: 264900229.

Date/timePositionNaut miles runAvg speedWind from/ knotsBaromVisibWave heightAir tempDewpointWater temp
2018-Apr-26 09:43N 44°10' E 028°39'0 0.0
2018-Apr-26 09:31N 44°10' E 028°39'4 8.9
2018-Apr-26 09:00N 44°06' E 028°44'4 8.8
2018-Apr-26 08:30N 44°09' E 028°49'0 0.1
2018-Apr-26 08:00N 44°09' E 028°49'0 0.1
2018-Apr-26 07:30N 44°09' E 028°49'0 0.1
2018-Apr-26 07:00N 44°09' E 028°49'0 0.0
2018-Apr-26 06:30N 44°09' E 028°49'3 5.5
2018-Apr-26 06:00N 44°07' E 028°46'5 9.0
2018-Apr-26 05:30N 44°09' E 028°40'  

Dump ship's entire track history